sensor_id;sensor_type;location;lat;lon;timestamp;P1;durP1;ratioP1;P2;durP2;ratioP2
3865;SDS011;1948;53.250;10.412;2023-07-28T00:02:22;3.93;;;3.63;;
3865;SDS011;1948;53.250;10.412;2023-07-28T00:04:52;3.80;;;3.77;;
3865;SDS011;1948;53.250;10.412;2023-07-28T00:07:19;3.73;;;3.73;;
3865;SDS011;1948;53.250;10.412;2023-07-28T00:09:45;3.60;;;3.60;;
3865;SDS011;1948;53.250;10.412;2023-07-28T00:12:12;3.70;;;3.60;;
3865;SDS011;1948;53.250;10.412;2023-07-28T00:14:39;3.67;;;3.63;;
3865;SDS011;1948;53.250;10.412;2023-07-28T00:17:09;3.73;;;3.63;;
3865;SDS011;1948;53.250;10.412;2023-07-28T00:19:36;3.50;;;3.50;;
3865;SDS011;1948;53.250;10.412;2023-07-28T00:22:03;3.67;;;3.67;;
3865;SDS011;1948;53.250;10.412;2023-07-28T00:24:30;3.13;;;3.13;;
3865;SDS011;1948;53.250;10.412;2023-07-28T00:26:56;3.77;;;3.40;;
3865;SDS011;1948;53.250;10.412;2023-07-28T00:29:24;3.40;;;3.30;;
3865;SDS011;1948;53.250;10.412;2023-07-28T00:31:51;2.73;;;2.73;;
3865;SDS011;1948;53.250;10.412;2023-07-28T00:34:19;2.50;;;2.50;;
3865;SDS011;1948;53.250;10.412;2023-07-28T00:36:46;2.90;;;2.90;;
3865;SDS011;1948;53.250;10.412;2023-07-28T00:39:18;2.60;;;2.60;;
3865;SDS011;1948;53.250;10.412;2023-07-28T00:41:45;13.03;;;2.97;;
3865;SDS011;1948;53.250;10.412;2023-07-28T00:44:12;2.80;;;2.80;;
3865;SDS011;1948;53.250;10.412;2023-07-28T00:46:40;2.67;;;2.67;;
3865;SDS011;1948;53.250;10.412;2023-07-28T00:49:08;2.60;;;2.60;;
3865;SDS011;1948;53.250;10.412;2023-07-28T00:51:35;2.83;;;2.83;;
3865;SDS011;1948;53.250;10.412;2023-07-28T00:54:04;2.70;;;2.70;;
3865;SDS011;1948;53.250;10.412;2023-07-28T00:56:31;2.67;;;2.67;;
3865;SDS011;1948;53.250;10.412;2023-07-28T00:59:01;2.87;;;2.60;;
3865;SDS011;1948;53.250;10.412;2023-07-28T01:01:30;2.40;;;2.40;;
3865;SDS011;1948;53.250;10.412;2023-07-28T01:03:57;2.33;;;2.33;;
3865;SDS011;1948;53.250;10.412;2023-07-28T01:06:40;2.40;;;2.30;;
3865;SDS011;1948;53.250;10.412;2023-07-28T01:09:24;2.73;;;2.33;;
3865;SDS011;1948;53.250;10.412;2023-07-28T01:12:01;2.27;;;2.27;;
3865;SDS011;1948;53.250;10.412;2023-07-28T01:14:35;6.00;;;2.30;;
3865;SDS011;1948;53.250;10.412;2023-07-28T01:17:02;2.70;;;2.07;;
3865;SDS011;1948;53.250;10.412;2023-07-28T01:19:30;2.10;;;2.10;;
3865;SDS011;1948;53.250;10.412;2023-07-28T01:22:11;2.47;;;2.47;;
3865;SDS011;1948;53.250;10.412;2023-07-28T01:27:47;3.80;;;2.00;;
3865;SDS011;1948;53.250;10.412;2023-07-28T01:30:22;2.77;;;2.60;;
3865;SDS011;1948;53.250;10.412;2023-07-28T01:32:55;1.90;;;1.83;;
3865;SDS011;1948;53.250;10.412;2023-07-28T01:35:25;3.43;;;1.90;;
3865;SDS011;1948;53.250;10.412;2023-07-28T01:37:55;3.07;;;1.90;;
3865;SDS011;1948;53.250;10.412;2023-07-28T01:40:22;2.40;;;2.20;;
3865;SDS011;1948;53.250;10.412;2023-07-28T01:42:49;1.83;;;1.83;;
3865;SDS011;1948;53.250;10.412;2023-07-28T01:45:20;2.20;;;2.10;;
3865;SDS011;1948;53.250;10.412;2023-07-28T01:47:47;2.30;;;1.97;;
3865;SDS011;1948;53.250;10.412;2023-07-28T01:50:17;4.63;;;1.90;;
3865;SDS011;1948;53.250;10.412;2023-07-28T01:52:44;3.20;;;2.10;;
3865;SDS011;1948;53.250;10.412;2023-07-28T01:55:10;1.83;;;1.83;;
3865;SDS011;1948;53.250;10.412;2023-07-28T01:57:38;1.93;;;1.87;;
3865;SDS011;1948;53.250;10.412;2023-07-28T02:00:09;1.63;;;1.53;;
3865;SDS011;1948;53.250;10.412;2023-07-28T02:02:36;2.30;;;2.10;;
3865;SDS011;1948;53.250;10.412;2023-07-28T02:05:06;1.77;;;1.67;;
3865;SDS011;1948;53.250;10.412;2023-07-28T02:07:33;2.00;;;1.90;;
3865;SDS011;1948;53.250;10.412;2023-07-28T02:10:02;1.47;;;1.47;;
3865;SDS011;1948;53.250;10.412;2023-07-28T02:12:32;3.60;;;1.83;;
3865;SDS011;1948;53.250;10.412;2023-07-28T02:14:59;2.00;;;1.77;;
3865;SDS011;1948;53.250;10.412;2023-07-28T02:17:26;1.70;;;1.60;;
3865;SDS011;1948;53.250;10.412;2023-07-28T02:19:56;3.63;;;1.80;;
3865;SDS011;1948;53.250;10.412;2023-07-28T02:22:23;1.60;;;1.60;;
3865;SDS011;1948;53.250;10.412;2023-07-28T02:24:50;2.10;;;1.90;;
3865;SDS011;1948;53.250;10.412;2023-07-28T02:27:19;2.40;;;1.90;;
3865;SDS011;1948;53.250;10.412;2023-07-28T02:29:49;1.70;;;1.60;;
3865;SDS011;1948;53.250;10.412;2023-07-28T02:32:18;2.10;;;2.00;;
3865;SDS011;1948;53.250;10.412;2023-07-28T02:34:48;2.27;;;2.10;;
3865;SDS011;1948;53.250;10.412;2023-07-28T02:37:16;3.70;;;1.83;;
3865;SDS011;1948;53.250;10.412;2023-07-28T02:39:45;1.50;;;1.40;;
3865;SDS011;1948;53.250;10.412;2023-07-28T02:42:12;2.80;;;1.80;;
3865;SDS011;1948;53.250;10.412;2023-07-28T02:44:41;4.60;;;1.80;;
3865;SDS011;1948;53.250;10.412;2023-07-28T02:47:11;2.30;;;1.40;;
3865;SDS011;1948;53.250;10.412;2023-07-28T02:49:40;1.47;;;1.47;;
3865;SDS011;1948;53.250;10.412;2023-07-28T02:52:07;1.40;;;1.30;;
3865;SDS011;1948;53.250;10.412;2023-07-28T02:54:34;1.33;;;1.23;;
3865;SDS011;1948;53.250;10.412;2023-07-28T02:57:01;2.40;;;1.10;;
3865;SDS011;1948;53.250;10.412;2023-07-28T02:59:28;1.30;;;1.30;;
3865;SDS011;1948;53.250;10.412;2023-07-28T03:01:57;1.17;;;1.17;;
3865;SDS011;1948;53.250;10.412;2023-07-28T03:04:24;2.67;;;1.30;;
3865;SDS011;1948;53.250;10.412;2023-07-28T03:06:51;1.47;;;1.47;;
3865;SDS011;1948;53.250;10.412;2023-07-28T03:09:18;1.20;;;1.20;;
3865;SDS011;1948;53.250;10.412;2023-07-28T03:11:47;1.40;;;1.40;;
3865;SDS011;1948;53.250;10.412;2023-07-28T03:14:14;1.27;;;1.27;;
3865;SDS011;1948;53.250;10.412;2023-07-28T03:16:41;1.73;;;1.63;;
3865;SDS011;1948;53.250;10.412;2023-07-28T03:19:09;1.60;;;1.50;;
3865;SDS011;1948;53.250;10.412;2023-07-28T03:21:36;3.27;;;1.97;;
3865;SDS011;1948;53.250;10.412;2023-07-28T03:24:05;1.50;;;1.50;;
3865;SDS011;1948;53.250;10.412;2023-07-28T03:26:35;1.37;;;1.37;;
3865;SDS011;1948;53.250;10.412;2023-07-28T03:29:05;1.47;;;1.23;;
3865;SDS011;1948;53.250;10.412;2023-07-28T03:31:32;2.10;;;1.30;;
3865;SDS011;1948;53.250;10.412;2023-07-28T03:34:02;6.73;;;1.40;;
3865;SDS011;1948;53.250;10.412;2023-07-28T03:36:30;1.50;;;1.50;;
3865;SDS011;1948;53.250;10.412;2023-07-28T03:38:57;2.40;;;1.10;;
3865;SDS011;1948;53.250;10.412;2023-07-28T03:41:24;1.60;;;1.60;;
3865;SDS011;1948;53.250;10.412;2023-07-28T03:43:51;1.40;;;1.40;;
3865;SDS011;1948;53.250;10.412;2023-07-28T03:46:18;1.90;;;1.60;;
3865;SDS011;1948;53.250;10.412;2023-07-28T03:48:48;1.90;;;1.80;;
3865;SDS011;1948;53.250;10.412;2023-07-28T03:51:15;2.07;;;1.97;;
3865;SDS011;1948;53.250;10.412;2023-07-28T03:53:44;1.30;;;1.30;;
3865;SDS011;1948;53.250;10.412;2023-07-28T03:56:11;5.67;;;1.87;;
3865;SDS011;1948;53.250;10.412;2023-07-28T03:58:38;3.10;;;1.37;;
3865;SDS011;1948;53.250;10.412;2023-07-28T04:01:05;2.13;;;1.60;;
3865;SDS011;1948;53.250;10.412;2023-07-28T04:03:34;6.33;;;2.10;;
3865;SDS011;1948;53.250;10.412;2023-07-28T04:06:04;1.90;;;1.90;;
3865;SDS011;1948;53.250;10.412;2023-07-28T04:08:38;4.03;;;1.77;;
3865;SDS011;1948;53.250;10.412;2023-07-28T04:11:06;1.60;;;1.50;;
3865;SDS011;1948;53.250;10.412;2023-07-28T04:13:33;4.53;;;2.07;;
3865;SDS011;1948;53.250;10.412;2023-07-28T04:16:05;6.27;;;2.20;;
3865;SDS011;1948;53.250;10.412;2023-07-28T04:18:32;2.40;;;2.30;;
3865;SDS011;1948;53.250;10.412;2023-07-28T04:21:00;2.83;;;2.10;;
3865;SDS011;1948;53.250;10.412;2023-07-28T04:23:29;4.10;;;2.70;;
3865;SDS011;1948;53.250;10.412;2023-07-28T04:25:58;2.70;;;2.70;;
3865;SDS011;1948;53.250;10.412;2023-07-28T04:28:25;6.37;;;3.27;;
3865;SDS011;1948;53.250;10.412;2023-07-28T04:30:52;3.77;;;3.27;;
3865;SDS011;1948;53.250;10.412;2023-07-28T04:33:24;3.97;;;3.70;;
3865;SDS011;1948;53.250;10.412;2023-07-28T04:35:51;3.93;;;3.73;;
3865;SDS011;1948;53.250;10.412;2023-07-28T04:38:22;3.70;;;3.60;;
3865;SDS011;1948;53.250;10.412;2023-07-28T04:40:49;4.13;;;3.83;;
3865;SDS011;1948;53.250;10.412;2023-07-28T04:43:18;2.03;;;2.03;;
3865;SDS011;1948;53.250;10.412;2023-07-28T04:45:48;2.10;;;2.00;;
3865;SDS011;1948;53.250;10.412;2023-07-28T04:48:15;1.50;;;1.50;;
3865;SDS011;1948;53.250;10.412;2023-07-28T04:50:44;1.70;;;1.70;;
3865;SDS011;1948;53.250;10.412;2023-07-28T04:53:11;2.40;;;2.20;;
3865;SDS011;1948;53.250;10.412;2023-07-28T04:55:38;2.50;;;2.50;;
3865;SDS011;1948;53.250;10.412;2023-07-28T04:58:05;5.17;;;2.40;;
3865;SDS011;1948;53.250;10.412;2023-07-28T05:00:35;2.63;;;2.53;;
3865;SDS011;1948;53.250;10.412;2023-07-28T05:03:02;2.13;;;2.13;;
3865;SDS011;1948;53.250;10.412;2023-07-28T05:05:29;2.80;;;2.70;;
3865;SDS011;1948;53.250;10.412;2023-07-28T05:07:56;2.20;;;2.20;;
3865;SDS011;1948;53.250;10.412;2023-07-28T05:10:23;5.90;;;2.87;;
3865;SDS011;1948;53.250;10.412;2023-07-28T05:12:50;2.50;;;2.40;;
3865;SDS011;1948;53.250;10.412;2023-07-28T05:15:17;2.83;;;2.67;;
3865;SDS011;1948;53.250;10.412;2023-07-28T05:17:44;2.53;;;2.37;;
3865;SDS011;1948;53.250;10.412;2023-07-28T05:20:11;3.67;;;3.33;;
3865;SDS011;1948;53.250;10.412;2023-07-28T05:22:38;3.60;;;3.50;;
3865;SDS011;1948;53.250;10.412;2023-07-28T05:25:05;6.17;;;5.00;;
3865;SDS011;1948;53.250;10.412;2023-07-28T05:27:33;19.03;;;4.27;;
3865;SDS011;1948;53.250;10.412;2023-07-28T05:30:00;4.20;;;3.90;;
3865;SDS011;1948;53.250;10.412;2023-07-28T05:32:27;10.97;;;3.70;;
3865;SDS011;1948;53.250;10.412;2023-07-28T05:34:57;3.37;;;3.17;;
3865;SDS011;1948;53.250;10.412;2023-07-28T05:37:27;2.60;;;2.50;;
3865;SDS011;1948;53.250;10.412;2023-07-28T05:39:56;2.40;;;2.40;;
3865;SDS011;1948;53.250;10.412;2023-07-28T05:42:23;2.20;;;2.10;;
3865;SDS011;1948;53.250;10.412;2023-07-28T05:44:52;6.47;;;1.90;;
3865;SDS011;1948;53.250;10.412;2023-07-28T05:47:20;1.50;;;1.50;;
3865;SDS011;1948;53.250;10.412;2023-07-28T05:49:47;1.50;;;1.50;;
3865;SDS011;1948;53.250;10.412;2023-07-28T05:52:14;2.10;;;1.20;;
3865;SDS011;1948;53.250;10.412;2023-07-28T05:54:44;4.20;;;1.40;;
3865;SDS011;1948;53.250;10.412;2023-07-28T05:57:12;1.57;;;1.50;;
3865;SDS011;1948;53.250;10.412;2023-07-28T05:59:38;4.77;;;1.20;;
3865;SDS011;1948;53.250;10.412;2023-07-28T06:02:06;3.03;;;1.20;;
3865;SDS011;1948;53.250;10.412;2023-07-28T06:04:35;1.47;;;1.47;;
3865;SDS011;1948;53.250;10.412;2023-07-28T06:07:05;4.93;;;2.40;;
3865;SDS011;1948;53.250;10.412;2023-07-28T06:09:32;4.60;;;1.30;;
3865;SDS011;1948;53.250;10.412;2023-07-28T06:12:02;2.30;;;2.10;;
3865;SDS011;1948;53.250;10.412;2023-07-28T06:14:29;1.10;;;1.10;;
3865;SDS011;1948;53.250;10.412;2023-07-28T06:16:56;0.70;;;0.70;;
3865;SDS011;1948;53.250;10.412;2023-07-28T06:19:23;3.23;;;1.23;;
3865;SDS011;1948;53.250;10.412;2023-07-28T06:21:50;0.80;;;0.80;;
3865;SDS011;1948;53.250;10.412;2023-07-28T06:24:18;1.10;;;0.80;;
3865;SDS011;1948;53.250;10.412;2023-07-28T06:26:45;0.93;;;0.93;;
3865;SDS011;1948;53.250;10.412;2023-07-28T06:29:12;2.30;;;1.10;;
3865;SDS011;1948;53.250;10.412;2023-07-28T06:31:41;1.07;;;1.07;;
3865;SDS011;1948;53.250;10.412;2023-07-28T06:34:08;1.20;;;1.10;;
3865;SDS011;1948;53.250;10.412;2023-07-28T06:36:35;1.10;;;0.93;;
3865;SDS011;1948;53.250;10.412;2023-07-28T06:39:02;1.57;;;0.97;;
3865;SDS011;1948;53.250;10.412;2023-07-28T06:41:31;7.40;;;1.40;;
3865;SDS011;1948;53.250;10.412;2023-07-28T06:43:58;1.00;;;1.00;;
3865;SDS011;1948;53.250;10.412;2023-07-28T06:46:28;1.63;;;1.03;;
3865;SDS011;1948;53.250;10.412;2023-07-28T06:48:58;5.13;;;1.03;;
3865;SDS011;1948;53.250;10.412;2023-07-28T06:51:25;2.93;;;1.40;;
3865;SDS011;1948;53.250;10.412;2023-07-28T06:53:52;1.33;;;1.23;;
3865;SDS011;1948;53.250;10.412;2023-07-28T06:56:19;1.30;;;1.20;;
3865;SDS011;1948;53.250;10.412;2023-07-28T06:58:52;2.70;;;1.40;;
3865;SDS011;1948;53.250;10.412;2023-07-28T07:01:39;7.43;;;1.43;;
3865;SDS011;1948;53.250;10.412;2023-07-28T07:04:06;1.40;;;1.40;;
3865;SDS011;1948;53.250;10.412;2023-07-28T07:06:33;3.17;;;1.20;;
3865;SDS011;1948;53.250;10.412;2023-07-28T07:09:00;1.40;;;1.30;;
3865;SDS011;1948;53.250;10.412;2023-07-28T07:11:27;1.23;;;1.13;;
3865;SDS011;1948;53.250;10.412;2023-07-28T07:13:59;8.30;;;1.37;;
3865;SDS011;1948;53.250;10.412;2023-07-28T07:16:26;1.23;;;1.23;;
3865;SDS011;1948;53.250;10.412;2023-07-28T07:18:55;1.03;;;0.93;;
3865;SDS011;1948;53.250;10.412;2023-07-28T07:21:25;1.90;;;1.67;;
3865;SDS011;1948;53.250;10.412;2023-07-28T07:23:53;4.50;;;1.50;;
3865;SDS011;1948;53.250;10.412;2023-07-28T07:26:21;3.90;;;2.53;;
3865;SDS011;1948;53.250;10.412;2023-07-28T07:28:48;1.30;;;1.30;;
3865;SDS011;1948;53.250;10.412;2023-07-28T07:31:15;2.00;;;1.53;;
3865;SDS011;1948;53.250;10.412;2023-07-28T07:33:44;1.87;;;1.77;;
3865;SDS011;1948;53.250;10.412;2023-07-28T07:36:15;2.60;;;1.13;;
3865;SDS011;1948;53.250;10.412;2023-07-28T07:38:46;5.13;;;1.47;;
3865;SDS011;1948;53.250;10.412;2023-07-28T07:41:16;1.73;;;1.63;;
3865;SDS011;1948;53.250;10.412;2023-07-28T07:43:46;3.17;;;1.90;;
3865;SDS011;1948;53.250;10.412;2023-07-28T07:46:16;2.07;;;2.07;;
3865;SDS011;1948;53.250;10.412;2023-07-28T07:48:46;2.70;;;1.80;;
3865;SDS011;1948;53.250;10.412;2023-07-28T07:51:16;2.93;;;2.00;;
3865;SDS011;1948;53.250;10.412;2023-07-28T07:53:43;4.00;;;2.37;;
3865;SDS011;1948;53.250;10.412;2023-07-28T07:56:11;2.10;;;2.10;;
3865;SDS011;1948;53.250;10.412;2023-07-28T07:58:38;2.23;;;2.13;;
3865;SDS011;1948;53.250;10.412;2023-07-28T08:01:10;2.77;;;2.40;;
3865;SDS011;1948;53.250;10.412;2023-07-28T08:03:38;2.50;;;2.40;;
3865;SDS011;1948;53.250;10.412;2023-07-28T08:06:06;2.83;;;2.40;;
3865;SDS011;1948;53.250;10.412;2023-07-28T08:08:37;3.17;;;3.00;;
3865;SDS011;1948;53.250;10.412;2023-07-28T08:11:08;2.80;;;2.70;;
3865;SDS011;1948;53.250;10.412;2023-07-28T08:13:35;4.40;;;3.10;;
3865;SDS011;1948;53.250;10.412;2023-07-28T08:16:05;3.00;;;2.80;;
3865;SDS011;1948;53.250;10.412;2023-07-28T08:18:35;4.30;;;3.00;;
3865;SDS011;1948;53.250;10.412;2023-07-28T08:21:02;2.50;;;2.50;;
3865;SDS011;1948;53.250;10.412;2023-07-28T08:23:33;3.20;;;3.07;;
3865;SDS011;1948;53.250;10.412;2023-07-28T08:26:00;3.30;;;3.20;;
3865;SDS011;1948;53.250;10.412;2023-07-28T08:28:28;3.30;;;3.20;;
3865;SDS011;1948;53.250;10.412;2023-07-28T08:31:01;3.10;;;2.83;;
3865;SDS011;1948;53.250;10.412;2023-07-28T08:33:32;3.30;;;3.20;;
3865;SDS011;1948;53.250;10.412;2023-07-28T08:35:59;3.17;;;3.17;;
3865;SDS011;1948;53.250;10.412;2023-07-28T08:38:30;3.07;;;2.97;;
3865;SDS011;1948;53.250;10.412;2023-07-28T08:40:57;3.43;;;3.30;;
3865;SDS011;1948;53.250;10.412;2023-07-28T08:43:25;3.90;;;3.13;;
3865;SDS011;1948;53.250;10.412;2023-07-28T08:45:54;3.20;;;3.00;;
3865;SDS011;1948;53.250;10.412;2023-07-28T08:48:21;3.77;;;3.47;;
3865;SDS011;1948;53.250;10.412;2023-07-28T08:50:52;3.77;;;3.30;;
3865;SDS011;1948;53.250;10.412;2023-07-28T08:53:20;7.70;;;3.10;;
3865;SDS011;1948;53.250;10.412;2023-07-28T08:55:46;3.57;;;3.27;;
3865;SDS011;1948;53.250;10.412;2023-07-28T08:58:14;2.90;;;2.80;;
3865;SDS011;1948;53.250;10.412;2023-07-28T09:00:46;3.00;;;2.90;;
3865;SDS011;1948;53.250;10.412;2023-07-28T09:03:19;4.00;;;3.03;;
3865;SDS011;1948;53.250;10.412;2023-07-28T09:05:47;3.50;;;3.50;;
3865;SDS011;1948;53.250;10.412;2023-07-28T09:08:15;3.20;;;3.10;;
3865;SDS011;1948;53.250;10.412;2023-07-28T09:10:46;3.80;;;3.70;;
3865;SDS011;1948;53.250;10.412;2023-07-28T09:13:16;3.57;;;3.27;;
3865;SDS011;1948;53.250;10.412;2023-07-28T09:15:48;4.00;;;3.80;;
3865;SDS011;1948;53.250;10.412;2023-07-28T09:18:18;3.83;;;3.57;;
3865;SDS011;1948;53.250;10.412;2023-07-28T09:20:49;3.00;;;2.90;;
3865;SDS011;1948;53.250;10.412;2023-07-28T09:23:16;3.50;;;3.30;;
3865;SDS011;1948;53.250;10.412;2023-07-28T09:25:58;3.40;;;3.30;;
3865;SDS011;1948;53.250;10.412;2023-07-28T09:28:36;4.00;;;3.80;;
3865;SDS011;1948;53.250;10.412;2023-07-28T09:31:09;3.70;;;3.60;;
3865;SDS011;1948;53.250;10.412;2023-07-28T09:33:38;3.10;;;3.07;;
3865;SDS011;1948;53.250;10.412;2023-07-28T09:36:13;3.20;;;3.10;;
3865;SDS011;1948;53.250;10.412;2023-07-28T09:38:50;3.30;;;3.10;;
3865;SDS011;1948;53.250;10.412;2023-07-28T09:41:21;3.00;;;3.00;;
3865;SDS011;1948;53.250;10.412;2023-07-28T09:43:49;3.10;;;3.00;;
3865;SDS011;1948;53.250;10.412;2023-07-28T09:46:18;2.90;;;2.80;;
3865;SDS011;1948;53.250;10.412;2023-07-28T09:48:48;3.00;;;3.00;;
3865;SDS011;1948;53.250;10.412;2023-07-28T09:51:20;3.27;;;3.07;;
3865;SDS011;1948;53.250;10.412;2023-07-28T09:53:49;2.77;;;2.73;;
3865;SDS011;1948;53.250;10.412;2023-07-28T09:56:27;2.80;;;2.80;;
3865;SDS011;1948;53.250;10.412;2023-07-28T09:58:58;2.67;;;2.57;;
3865;SDS011;1948;53.250;10.412;2023-07-28T10:01:30;2.73;;;2.63;;
3865;SDS011;1948;53.250;10.412;2023-07-28T10:03:59;7.50;;;2.47;;
3865;SDS011;1948;53.250;10.412;2023-07-28T10:06:27;4.40;;;2.50;;
3865;SDS011;1948;53.250;10.412;2023-07-28T10:08:59;3.70;;;2.60;;
3865;SDS011;1948;53.250;10.412;2023-07-28T10:11:27;2.07;;;2.07;;
3865;SDS011;1948;53.250;10.412;2023-07-28T10:13:54;2.50;;;2.30;;
3865;SDS011;1948;53.250;10.412;2023-07-28T10:16:29;2.97;;;2.47;;
3865;SDS011;1948;53.250;10.412;2023-07-28T10:18:58;2.83;;;2.80;;
3865;SDS011;1948;53.250;10.412;2023-07-28T10:21:27;2.70;;;2.70;;
3865;SDS011;1948;53.250;10.412;2023-07-28T10:23:58;2.80;;;2.80;;
3865;SDS011;1948;53.250;10.412;2023-07-28T10:26:34;2.70;;;2.70;;
3865;SDS011;1948;53.250;10.412;2023-07-28T10:29:08;2.80;;;2.60;;
3865;SDS011;1948;53.250;10.412;2023-07-28T10:34:20;2.80;;;2.80;;
3865;SDS011;1948;53.250;10.412;2023-07-28T10:36:58;7.77;;;3.50;;
3865;SDS011;1948;53.250;10.412;2023-07-28T10:39:28;2.80;;;2.60;;
3865;SDS011;1948;53.250;10.412;2023-07-28T10:42:06;2.83;;;2.83;;
3865;SDS011;1948;53.250;10.412;2023-07-28T10:44:38;4.33;;;3.97;;
3865;SDS011;1948;53.250;10.412;2023-07-28T10:47:09;3.30;;;2.90;;
3865;SDS011;1948;53.250;10.412;2023-07-28T10:49:37;2.23;;;2.13;;
3865;SDS011;1948;53.250;10.412;2023-07-28T10:52:07;2.70;;;2.70;;
3865;SDS011;1948;53.250;10.412;2023-07-28T10:54:34;3.70;;;2.80;;
3865;SDS011;1948;53.250;10.412;2023-07-28T10:57:02;2.20;;;2.20;;
3865;SDS011;1948;53.250;10.412;2023-07-28T10:59:32;2.97;;;2.20;;
3865;SDS011;1948;53.250;10.412;2023-07-28T11:01:59;2.60;;;2.50;;
3865;SDS011;1948;53.250;10.412;2023-07-28T11:04:26;2.47;;;2.30;;
3865;SDS011;1948;53.250;10.412;2023-07-28T11:06:53;3.60;;;3.40;;
3865;SDS011;1948;53.250;10.412;2023-07-28T11:09:22;2.50;;;2.40;;
3865;SDS011;1948;53.250;10.412;2023-07-28T11:11:52;2.30;;;2.07;;
3865;SDS011;1948;53.250;10.412;2023-07-28T11:14:19;2.70;;;2.70;;
3865;SDS011;1948;53.250;10.412;2023-07-28T11:16:49;2.47;;;2.30;;
3865;SDS011;1948;53.250;10.412;2023-07-28T11:19:16;1.90;;;1.80;;
3865;SDS011;1948;53.250;10.412;2023-07-28T11:21:48;2.30;;;2.20;;
3865;SDS011;1948;53.250;10.412;2023-07-28T11:24:18;2.87;;;2.87;;
3865;SDS011;1948;53.250;10.412;2023-07-28T11:26:46;2.40;;;2.20;;
3865;SDS011;1948;53.250;10.412;2023-07-28T11:29:17;2.50;;;2.40;;
3865;SDS011;1948;53.250;10.412;2023-07-28T11:31:47;1.90;;;1.90;;
3865;SDS011;1948;53.250;10.412;2023-07-28T11:34:19;2.20;;;2.20;;
3865;SDS011;1948;53.250;10.412;2023-07-28T11:36:47;4.87;;;2.87;;
3865;SDS011;1948;53.250;10.412;2023-07-28T11:39:14;2.33;;;2.23;;
3865;SDS011;1948;53.250;10.412;2023-07-28T11:41:42;3.07;;;2.83;;
3865;SDS011;1948;53.250;10.412;2023-07-28T11:44:10;2.70;;;2.70;;
3865;SDS011;1948;53.250;10.412;2023-07-28T11:46:39;2.67;;;2.67;;
3865;SDS011;1948;53.250;10.412;2023-07-28T11:49:18;3.33;;;2.57;;
3865;SDS011;1948;53.250;10.412;2023-07-28T11:51:54;2.80;;;2.70;;
3865;SDS011;1948;53.250;10.412;2023-07-28T11:54:24;2.73;;;2.70;;
3865;SDS011;1948;53.250;10.412;2023-07-28T11:56:56;4.10;;;2.70;;
3865;SDS011;1948;53.250;10.412;2023-07-28T11:59:24;2.70;;;2.50;;
3865;SDS011;1948;53.250;10.412;2023-07-28T12:01:57;11.70;;;3.40;;
3865;SDS011;1948;53.250;10.412;2023-07-28T12:04:35;3.03;;;3.00;;
3865;SDS011;1948;53.250;10.412;2023-07-28T12:12:16;3.07;;;2.97;;
3865;SDS011;1948;53.250;10.412;2023-07-28T12:14:51;5.50;;;5.20;;
3865;SDS011;1948;53.250;10.412;2023-07-28T12:17:24;5.43;;;5.23;;
3865;SDS011;1948;53.250;10.412;2023-07-28T12:20:13;7.30;;;6.83;;
3865;SDS011;1948;53.250;10.412;2023-07-28T12:22:42;5.07;;;4.67;;
3865;SDS011;1948;53.250;10.412;2023-07-28T12:25:11;4.43;;;4.03;;
3865;SDS011;1948;53.250;10.412;2023-07-28T12:27:38;5.00;;;4.57;;
3865;SDS011;1948;53.250;10.412;2023-07-28T12:30:05;8.30;;;4.63;;
3865;SDS011;1948;53.250;10.412;2023-07-28T12:32:39;6.37;;;6.17;;
3865;SDS011;1948;53.250;10.412;2023-07-28T12:35:29;4.50;;;4.40;;
3865;SDS011;1948;53.250;10.412;2023-07-28T12:38:03;3.87;;;3.77;;
3865;SDS011;1948;53.250;10.412;2023-07-28T12:40:34;3.77;;;3.67;;
3865;SDS011;1948;53.250;10.412;2023-07-28T12:43:04;3.97;;;3.77;;
3865;SDS011;1948;53.250;10.412;2023-07-28T12:45:32;3.30;;;3.20;;
3865;SDS011;1948;53.250;10.412;2023-07-28T12:48:02;3.20;;;3.00;;
3865;SDS011;1948;53.250;10.412;2023-07-28T12:50:32;3.60;;;3.43;;
3865;SDS011;1948;53.250;10.412;2023-07-28T12:53:04;3.70;;;3.60;;
3865;SDS011;1948;53.250;10.412;2023-07-28T12:55:42;3.20;;;3.20;;
3865;SDS011;1948;53.250;10.412;2023-07-28T12:58:12;7.93;;;3.10;;
3865;SDS011;1948;53.250;10.412;2023-07-28T13:00:44;3.30;;;3.13;;
3865;SDS011;1948;53.250;10.412;2023-07-28T13:03:14;2.73;;;2.60;;
3865;SDS011;1948;53.250;10.412;2023-07-28T13:05:42;3.53;;;3.30;;
3865;SDS011;1948;53.250;10.412;2023-07-28T13:08:10;3.83;;;3.73;;
3865;SDS011;1948;53.250;10.412;2023-07-28T13:10:40;3.37;;;3.37;;
3865;SDS011;1948;53.250;10.412;2023-07-28T13:13:14;3.50;;;3.30;;
3865;SDS011;1948;53.250;10.412;2023-07-28T13:15:44;2.93;;;2.93;;
3865;SDS011;1948;53.250;10.412;2023-07-28T13:18:11;5.57;;;3.40;;
3865;SDS011;1948;53.250;10.412;2023-07-28T13:20:38;2.43;;;2.43;;
3865;SDS011;1948;53.250;10.412;2023-07-28T13:23:07;2.70;;;2.60;;
3865;SDS011;1948;53.250;10.412;2023-07-28T13:25:37;5.30;;;5.00;;
3865;SDS011;1948;53.250;10.412;2023-07-28T13:28:04;4.03;;;3.73;;
3865;SDS011;1948;53.250;10.412;2023-07-28T13:30:34;2.50;;;2.50;;
3865;SDS011;1948;53.250;10.412;2023-07-28T13:33:01;2.50;;;2.40;;
3865;SDS011;1948;53.250;10.412;2023-07-28T13:35:32;2.13;;;2.03;;
3865;SDS011;1948;53.250;10.412;2023-07-28T13:38:04;3.07;;;2.33;;
3865;SDS011;1948;53.250;10.412;2023-07-28T13:40:31;2.30;;;2.20;;
3865;SDS011;1948;53.250;10.412;2023-07-28T13:43:04;3.13;;;1.97;;
3865;SDS011;1948;53.250;10.412;2023-07-28T13:45:33;2.40;;;2.40;;
3865;SDS011;1948;53.250;10.412;2023-07-28T13:48:00;2.20;;;2.10;;
3865;SDS011;1948;53.250;10.412;2023-07-28T13:50:30;2.20;;;2.20;;
3865;SDS011;1948;53.250;10.412;2023-07-28T13:53:00;2.10;;;2.00;;
3865;SDS011;1948;53.250;10.412;2023-07-28T13:55:48;2.20;;;2.10;;
3865;SDS011;1948;53.250;10.412;2023-07-28T13:58:23;1.53;;;1.53;;
3865;SDS011;1948;53.250;10.412;2023-07-28T14:00:50;1.77;;;1.77;;
3865;SDS011;1948;53.250;10.412;2023-07-28T14:03:17;2.33;;;2.10;;
3865;SDS011;1948;53.250;10.412;2023-07-28T14:05:45;2.23;;;2.13;;
3865;SDS011;1948;53.250;10.412;2023-07-28T14:08:12;2.73;;;2.63;;
3865;SDS011;1948;53.250;10.412;2023-07-28T14:10:43;2.97;;;2.97;;
3865;SDS011;1948;53.250;10.412;2023-07-28T14:13:14;4.97;;;2.20;;
3865;SDS011;1948;53.250;10.412;2023-07-28T14:15:41;2.50;;;2.40;;
3865;SDS011;1948;53.250;10.412;2023-07-28T14:18:09;1.80;;;1.70;;
3865;SDS011;1948;53.250;10.412;2023-07-28T14:20:36;1.50;;;1.50;;
3865;SDS011;1948;53.250;10.412;2023-07-28T14:23:08;1.40;;;1.40;;
3865;SDS011;1948;53.250;10.412;2023-07-28T14:25:50;1.77;;;1.70;;
3865;SDS011;1948;53.250;10.412;2023-07-28T14:28:21;2.53;;;1.47;;
3865;SDS011;1948;53.250;10.412;2023-07-28T14:30:49;5.10;;;4.70;;
3865;SDS011;1948;53.250;10.412;2023-07-28T14:33:18;5.00;;;4.60;;
3865;SDS011;1948;53.250;10.412;2023-07-28T14:35:47;2.73;;;2.63;;
3865;SDS011;1948;53.250;10.412;2023-07-28T14:38:18;2.50;;;2.37;;
3865;SDS011;1948;53.250;10.412;2023-07-28T14:40:45;1.90;;;1.80;;
3865;SDS011;1948;53.250;10.412;2023-07-28T14:43:18;1.33;;;1.33;;
3865;SDS011;1948;53.250;10.412;2023-07-28T14:45:45;1.50;;;1.40;;
3865;SDS011;1948;53.250;10.412;2023-07-28T14:48:12;1.60;;;1.60;;
3865;SDS011;1948;53.250;10.412;2023-07-28T14:50:39;1.70;;;1.70;;
3865;SDS011;1948;53.250;10.412;2023-07-28T14:56:02;4.10;;;1.50;;
3865;SDS011;1948;53.250;10.412;2023-07-28T14:58:31;3.47;;;2.43;;
3865;SDS011;1948;53.250;10.412;2023-07-28T15:01:01;4.00;;;1.90;;
3865;SDS011;1948;53.250;10.412;2023-07-28T15:03:31;3.17;;;3.07;;
3865;SDS011;1948;53.250;10.412;2023-07-28T15:05:58;3.00;;;2.70;;
3865;SDS011;1948;53.250;10.412;2023-07-28T15:08:27;1.80;;;1.80;;
3865;SDS011;1948;53.250;10.412;2023-07-28T15:10:55;2.00;;;1.93;;
3865;SDS011;1948;53.250;10.412;2023-07-28T15:13:23;2.40;;;2.40;;
3865;SDS011;1948;53.250;10.412;2023-07-28T15:15:53;2.47;;;2.37;;
3865;SDS011;1948;53.250;10.412;2023-07-28T15:18:23;7.17;;;2.93;;
3865;SDS011;1948;53.250;10.412;2023-07-28T15:20:50;4.77;;;1.70;;
3865;SDS011;1948;53.250;10.412;2023-07-28T15:23:17;1.40;;;1.30;;
3865;SDS011;1948;53.250;10.412;2023-07-28T15:25:44;1.40;;;1.40;;
3865;SDS011;1948;53.250;10.412;2023-07-28T15:28:14;1.33;;;1.33;;